Time;durP1;ratioP1;P1;durP2;ratioP2;P2;SDS_P1;SDS_P2;PMS_P1;PMS_P2;Temp;Humidity;BMP_temperature;BMP_pressure;BME280_temperature;BME280_humidity;BME280_pressure;Samples;Min_cycle;Max_cycle;Signal;HPM_P1;HPM_P2
2023/02/27 00:05:16;;;;;;;3.63;1.33;;;-0.10;1.00;;;;;;5074962;28;20206;-77
2023/02/27 00:08:33;;;;;;;1.55;1.10;;;-0.10;1.00;;;;;;5064857;28;20228;-77
2023/02/27 00:11:51;;;;;;;1.25;1.00;;;-0.20;1.00;;;;;;5075759;28;20175;-77
2023/02/27 00:17:58;;;;;;;1.48;1.15;;;-0.40;1.00;;;;;;5065932;28;20186;-77
2023/02/27 00:23:45;;;;;;;1.05;0.93;;;-0.40;1.00;;;;;;5094809;28;20193;-74
2023/02/27 00:26:11;;;;;;;2.13;1.10;;;-0.40;1.00;;;;;;5078337;28;20168;-75
2023/02/27 00:28:39;;;;;;;1.70;1.40;;;-0.50;1.00;;;;;;5075101;28;20186;-74
2023/02/27 00:31:05;;;;;;;1.77;1.10;;;-0.60;1.00;;;;;;5075936;28;20234;-74
2023/02/27 00:33:31;;;;;;;1.43;1.30;;;-0.60;1.00;;;;;;5062428;28;20178;-74
2023/02/27 00:35:59;;;;;;;3.20;1.13;;;-0.70;1.00;;;;;;5075831;28;20223;-74
2023/02/27 00:41:51;;;;;;;3.22;1.35;;;-0.80;1.00;;;;;;5075411;28;20245;-77
2023/02/27 00:44:21;;;;;;;2.03;1.15;;;-0.80;1.00;;;;;;5073352;28;20175;-77
2023/02/27 00:50:09;;;;;;;2.30;1.20;;;-0.90;1.00;;;;;;5075521;28;20194;-77
2023/02/27 00:55:57;;;;;;;1.67;1.08;;;-0.90;1.00;;;;;;5078315;28;20266;-77
2023/02/27 00:58:39;;;;;;;1.53;1.10;;;-0.90;1.00;;;;;;5076602;28;20206;-77
2023/02/27 01:01:21;;;;;;;1.25;1.15;;;-0.90;1.00;;;;;;5074447;28;20268;-77
2023/02/27 01:07:33;;;;;;;1.25;1.15;;;-0.90;1.00;;;;;;5075152;28;20194;-77
2023/02/27 01:10:00;;;;;;;1.00;0.90;;;-0.80;1.00;;;;;;5075275;28;20199;-74
2023/02/27 01:12:27;;;;;;;1.05;0.95;;;-0.90;1.00;;;;;;5063418;28;20175;-74
2023/02/27 01:14:58;;;;;;;2.28;1.48;;;-0.80;1.00;;;;;;5075195;28;20250;-74
2023/02/27 01:17:27;;;;;;;5.63;1.35;;;-0.80;1.00;;;;;;5074819;28;20191;-74
2023/02/27 01:20:21;;;;;;;2.58;1.17;;;-0.80;1.00;;;;;;5074998;28;20183;-74
2023/02/27 01:22:51;;;;;;;1.40;1.10;;;-0.80;1.00;;;;;;5075399;28;20194;-76
2023/02/27 01:25:57;;;;;;;1.73;1.10;;;-0.70;1.00;;;;;;5074749;28;20634;-77
2023/02/27 01:28:45;;;;;;;2.17;0.90;;;-0.70;1.00;;;;;;5057658;28;20163;-77
2023/02/27 01:31:16;;;;;;;1.77;1.10;;;-0.70;1.00;;;;;;5067699;28;20623;-77
2023/02/27 01:34:03;;;;;;;0.90;0.90;;;-0.70;1.00;;;;;;5072297;28;20278;-77
2023/02/27 01:37:21;;;;;;;5.32;1.10;;;-0.70;1.00;;;;;;5061575;28;20186;-77
2023/02/27 01:39:47;;;;;;;2.78;1.15;;;-0.60;1.00;;;;;;5083574;28;20249;-74
2023/02/27 01:42:23;;;;;;;1.50;1.40;;;-0.50;1.00;;;;;;5077046;28;20293;-74
2023/02/27 01:45:11;;;;;;;5.20;1.35;;;-0.50;1.00;;;;;;5074375;28;20171;-74
2023/02/27 01:47:52;;;;;;;1.15;1.05;;;-0.50;1.00;;;;;;5074463;28;20171;-74
2023/02/27 01:50:19;;;;;;;1.85;1.02;;;-0.50;1.00;;;;;;5074155;28;20194;-74
2023/02/27 01:52:56;;;;;;;1.77;1.30;;;-0.50;1.00;;;;;;5074468;28;20179;-74
2023/02/27 01:55:24;;;;;;;1.35;1.13;;;-0.50;1.00;;;;;;5071440;28;20178;-77
2023/02/27 02:04:53;;;;;;;1.33;0.90;;;-0.40;1.00;;;;;;5078545;28;20186;-77
2023/02/27 02:07:40;;;;;;;1.45;0.90;;;-0.40;1.00;;;;;;5073308;28;20224;-77
2023/02/27 02:10:11;;;;;;;0.90;0.90;;;-0.30;1.00;;;;;;5070367;28;20311;-74
2023/02/27 02:12:52;;;;;;;1.05;0.90;;;-0.30;1.00;;;;;;5094487;28;20288;-74
2023/02/27 02:15:24;;;;;;;1.02;1.00;;;-0.30;1.00;;;;;;5072473;28;20200;-75
2023/02/27 02:18:29;;;;;;;2.10;1.10;;;-0.40;1.00;;;;;;5062293;28;20263;-75
2023/02/27 02:21:31;;;;;;;1.10;0.90;;;-0.40;1.00;;;;;;5072221;28;20170;-74
2023/02/27 02:24:51;;;;;;;1.42;1.08;;;-0.40;1.00;;;;;;4999587;28;20288;-77
2023/02/27 02:27:53;;;;;;;2.85;1.27;;;-0.50;1.00;;;;;;5006414;28;20185;-77
2023/02/27 02:34:21;;;;;;;1.40;1.30;;;-0.60;1.00;;;;;;5012125;28;20282;-78
2023/02/27 02:37:01;;;;;;;1.45;0.90;;;-0.50;1.00;;;;;;5004178;28;20213;-77
2023/02/27 02:40:21;;;;;;;3.25;1.10;;;-0.50;1.00;;;;;;5012192;28;20177;-77
2023/02/27 02:42:56;;;;;;;1.15;0.98;;;-0.60;1.00;;;;;;5000338;28;20203;-77
2023/02/27 02:45:33;;;;;;;1.00;1.00;;;-0.50;1.00;;;;;;5010900;28;20239;-77
2023/02/27 02:51:36;;;;;;;1.27;1.10;;;-0.50;1.00;;;;;;5011207;28;20287;-77
2023/02/27 02:54:15;;;;;;;1.88;1.08;;;-0.60;1.00;;;;;;5011442;28;20197;-75
2023/02/27 02:57:05;;;;;;;6.25;1.50;;;-0.70;1.00;;;;;;5011634;28;20548;-75
2023/02/27 02:59:40;;;;;;;3.15;1.42;;;-0.60;1.00;;;;;;5009843;28;20687;-74
2023/02/27 03:02:17;;;;;;;1.33;1.20;;;-0.60;1.00;;;;;;5071975;28;20669;-75
2023/02/27 03:04:54;;;;;;;1.98;1.10;;;-0.60;1.00;;;;;;5073749;28;20173;-74
2023/02/27 03:07:24;;;;;;;2.63;1.20;;;-0.60;1.00;;;;;;5073372;28;20185;-74
2023/02/27 03:09:56;;;;;;;2.25;1.15;;;-0.60;1.00;;;;;;5073814;28;20171;-77
2023/02/27 03:12:38;;;;;;;1.95;0.80;;;-0.60;1.00;;;;;;5055198;28;20544;-78
2023/02/27 03:15:07;;;;;;;1.42;1.02;;;-0.70;1.00;;;;;;5072987;28;20174;-77
2023/02/27 03:17:54;;;;;;;2.80;1.08;;;-0.70;1.00;;;;;;5063643;28;20175;-77
2023/02/27 03:20:32;;;;;;;0.90;0.90;;;-0.70;1.00;;;;;;5077277;28;20190;-77
2023/02/27 03:23:39;;;;;;;2.75;1.00;;;-0.70;1.00;;;;;;5076677;28;20202;-77
2023/02/27 03:26:14;;;;;;;2.80;1.00;;;-0.80;1.00;;;;;;5081750;28;20170;-75
2023/02/27 03:29:07;;;;;;;1.30;1.00;;;-0.80;1.00;;;;;;5084954;28;20668;-74
2023/02/27 03:31:57;;;;;;;3.00;1.13;;;-0.80;1.00;;;;;;5067172;28;20206;-74
2023/02/27 03:34:31;;;;;;;3.33;1.20;;;-0.80;1.00;;;;;;5076923;28;20262;-75
2023/02/27 03:37:38;;;;;;;0.82;0.80;;;-0.80;1.00;;;;;;5077165;28;20178;-74
2023/02/27 03:40:07;;;;;;;1.20;1.10;;;-0.80;1.00;;;;;;5077346;28;20179;-75
2023/02/27 03:42:51;;;;;;;1.58;1.35;;;-0.80;1.00;;;;;;5076985;28;20198;-74
2023/02/27 03:45:46;;;;;;;1.00;1.00;;;-0.80;1.00;;;;;;5076580;28;20186;-74
2023/02/27 03:48:11;;;;;;;1.05;0.95;;;-0.90;1.00;;;;;;5076939;28;20746;-75
2023/02/27 03:50:37;;;;;;;1.70;1.00;;;-0.90;1.00;;;;;;5076691;28;20206;-75
2023/02/27 03:53:24;;;;;;;0.93;0.93;;;-1.00;1.00;;;;;;5077135;28;20555;-74
2023/02/27 03:55:53;;;;;;;1.00;1.00;;;-0.90;1.00;;;;;;5065900;28;20467;-77
2023/02/27 03:58:28;;;;;;;3.45;1.20;;;-0.80;1.00;;;;;;5075807;28;20657;-77
2023/02/27 04:01:28;;;;;;;2.45;0.85;;;-0.90;1.00;;;;;;5072984;28;20182;-77
2023/02/27 04:08:00;;;;;;;1.10;1.00;;;-0.90;1.00;;;;;;5065776;28;20186;-77
2023/02/27 04:10:58;;;;;;;1.42;0.90;;;-0.90;1.00;;;;;;4995444;28;20276;-77
2023/02/27 04:13:58;;;;;;;1.17;1.10;;;-0.90;1.00;;;;;;4987932;28;20696;-77
2023/02/27 04:23:51;;;;;;;1.00;1.00;;;-0.90;1.00;;;;;;5013923;28;20854;-77
2023/02/27 04:26:45;;;;;;;3.33;1.05;;;-1.00;1.00;;;;;;5021239;28;20192;-77
2023/02/27 04:29:50;;;;;;;1.38;1.10;;;-1.00;1.00;;;;;;5009502;28;20181;-77
2023/02/27 04:32:47;;;;;;;1.30;0.90;;;-1.00;1.00;;;;;;4955688;28;20614;-77
2023/02/27 04:39:01;;;;;;;1.02;0.93;;;-1.20;1.00;;;;;;4936462;29;20666;-77
2023/02/27 04:41:49;;;;;;;2.10;1.05;;;-1.20;1.00;;;;;;4956020;28;20221;-77
2023/02/27 04:44:18;;;;;;;1.80;1.00;;;-1.20;1.00;;;;;;4958582;28;20179;-77
2023/02/27 04:46:55;;;;;;;1.17;1.05;;;-1.20;1.00;;;;;;4970381;28;20242;-77
2023/02/27 04:49:24;;;;;;;1.30;1.23;;;-1.20;1.00;;;;;;5005134;28;20189;-77
2023/02/27 04:52:34;;;;;;;1.55;1.10;;;-1.20;1.00;;;;;;4996293;28;20182;-77
2023/02/27 04:55:12;;;;;;;2.58;0.90;;;-1.30;1.00;;;;;;4923478;29;20191;-75
2023/02/27 04:57:51;;;;;;;1.10;1.00;;;-1.30;1.00;;;;;;4927145;29;20211;-74
2023/02/27 05:00:21;;;;;;;1.35;1.25;;;-1.30;1.00;;;;;;4934004;29;20256;-75
2023/02/27 05:03:24;;;;;;;1.00;1.00;;;-1.40;1.00;;;;;;4935924;29;20229;-75
2023/02/27 05:05:53;;;;;;;1.48;1.05;;;-1.30;1.00;;;;;;4897841;29;20228;-74
2023/02/27 05:09:11;;;;;;;1.08;1.08;;;-1.40;1.00;;;;;;4913444;29;20187;-76
2023/02/27 05:12:15;;;;;;;2.15;1.25;;;-1.40;1.00;;;;;;4929675;29;20199;-74
2023/02/27 05:14:58;;;;;;;1.67;1.10;;;-1.50;1.00;;;;;;4929528;29;20786;-75
2023/02/27 05:17:44;;;;;;;3.85;1.17;;;-1.50;1.00;;;;;;4929060;29;20195;-75
2023/02/27 05:20:48;;;;;;;3.42;1.05;;;-1.50;1.00;;;;;;4927009;29;20200;-75
2023/02/27 05:23:27;;;;;;;0.80;0.80;;;-1.50;1.00;;;;;;4841427;29;20204;-75
2023/02/27 05:26:04;;;;;;;0.80;0.80;;;-1.60;1.00;;;;;;4848472;29;20270;-75
2023/02/27 05:28:59;;;;;;;0.90;0.90;;;-1.50;1.00;;;;;;4860624;29;20667;-81
2023/02/27 05:31:50;;;;;;;0.93;0.90;;;-1.60;1.00;;;;;;4877313;29;20186;-80
2023/02/27 05:34:56;;;;;;;3.15;1.35;;;-1.60;1.00;;;;;;4878371;29;20186;-80
2023/02/27 05:37:43;;;;;;;0.93;0.93;;;-1.60;1.00;;;;;;4878835;29;20327;-80
2023/02/27 05:40:42;;;;;;;1.27;1.17;;;-1.60;1.00;;;;;;4890805;29;20293;-88
2023/02/27 05:43:18;;;;;;;1.13;1.02;;;-1.60;1.00;;;;;;4882800;29;20626;-88
2023/02/27 05:49:21;;;;;;;2.47;1.27;;;-1.50;1.00;;;;;;4957396;28;20235;-88
2023/02/27 05:51:50;;;;;;;0.80;0.80;;;-1.50;1.00;;;;;;4955747;28;20201;-88
2023/02/27 05:54:32;;;;;;;1.10;1.10;;;-1.50;1.00;;;;;;4973321;28;20600;-75
2023/02/27 05:57:00;;;;;;;1.50;1.00;;;-1.40;1.00;;;;;;5004369;28;20260;-72
2023/02/27 05:59:38;;;;;;;5.03;1.30;;;-1.40;1.00;;;;;;5077506;28;20356;-72
2023/02/27 06:02:23;;;;;;;1.50;1.40;;;-1.40;1.00;;;;;;5067890;28;20202;-72
2023/02/27 06:04:48;;;;;;;1.27;1.15;;;-1.40;1.00;;;;;;5071307;28;20183;-72
2023/02/27 06:07:15;;;;;;;2.70;1.20;;;-1.30;1.00;;;;;;5073864;28;20179;-72
2023/02/27 06:09:43;;;;;;;1.02;0.93;;;-1.40;1.00;;;;;;5062887;28;20421;-71
2023/02/27 06:12:09;;;;;;;3.20;1.25;;;-1.30;1.00;;;;;;5074022;28;20203;-72
2023/02/27 06:14:35;;;;;;;3.60;1.10;;;-1.30;1.00;;;;;;5060755;28;20179;-72
2023/02/27 06:17:01;;;;;;;1.20;1.10;;;-1.40;1.00;;;;;;5064796;28;20186;-72
2023/02/27 06:19:27;;;;;;;1.25;1.00;;;-1.30;1.00;;;;;;5078172;28;20499;-72
2023/02/27 06:21:52;;;;;;;1.20;1.10;;;-1.30;1.00;;;;;;5073757;28;20298;-72
2023/02/27 06:24:18;;;;;;;2.10;1.00;;;-1.30;1.00;;;;;;5073429;28;20971;-72
2023/02/27 06:26:45;;;;;;;1.60;1.10;;;-1.30;1.00;;;;;;5078738;28;20412;-72
2023/02/27 06:29:16;;;;;;;1.60;1.50;;;-1.30;1.00;;;;;;5063404;28;20406;-72
2023/02/27 06:31:42;;;;;;;1.85;1.00;;;-1.30;1.00;;;;;;5063218;28;20233;-72
2023/02/27 06:34:08;;;;;;;0.90;0.90;;;-1.30;1.00;;;;;;5078513;28;20174;-74
2023/02/27 06:36:40;;;;;;;1.08;1.08;;;-1.20;1.00;;;;;;5079707;28;20185;-74
2023/02/27 06:39:27;;;;;;;2.65;1.35;;;-1.20;1.00;;;;;;5074146;28;20178;-74
2023/02/27 06:42:10;;;;;;;3.30;1.40;;;-1.10;1.00;;;;;;5073141;28;20198;-73
2023/02/27 06:44:40;;;;;;;1.40;1.30;;;-1.10;1.00;;;;;;5054736;28;20209;-73
2023/02/27 06:47:10;;;;;;;1.63;1.05;;;-1.10;1.00;;;;;;5072936;28;20205;-74
2023/02/27 06:49:35;;;;;;;1.13;1.13;;;-1.10;1.00;;;;;;5077658;28;20213;-74
2023/02/27 06:52:02;;;;;;;1.43;1.10;;;-1.00;1.00;;;;;;5073198;28;20210;-74
2023/02/27 06:54:40;;;;;;;1.70;1.40;;;-1.00;1.00;;;;;;5070760;28;20665;-74
2023/02/27 06:57:16;;;;;;;4.35;1.23;;;-1.00;1.00;;;;;;5073009;28;20221;-74
2023/02/27 06:59:43;;;;;;;1.80;1.30;;;-0.90;1.00;;;;;;5073421;28;20167;-75
2023/02/27 07:02:14;;;;;;;1.75;1.13;;;-0.90;1.00;;;;;;5065274;28;20198;-75
2023/02/27 07:04:52;;;;;;;1.80;1.50;;;-0.80;1.00;;;;;;5073039;28;20227;-74
2023/02/27 07:07:22;;;;;;;4.57;1.40;;;-0.70;1.00;;;;;;5066264;28;20182;-74
2023/02/27 07:09:52;;;;;;;1.65;1.40;;;-0.70;1.00;;;;;;5065014;28;20190;-74
2023/02/27 07:12:22;;;;;;;1.50;1.30;;;-0.60;1.00;;;;;;5069970;28;20217;-75
2023/02/27 07:14:52;;;;;;;2.55;1.30;;;-0.40;1.00;;;;;;5072580;28;20179;-75
2023/02/27 07:17:17;;;;;;;3.25;1.33;;;-0.40;1.00;;;;;;5073252;28;20187;-75
2023/02/27 07:19:52;;;;;;;1.93;1.20;;;-0.30;1.00;;;;;;5073394;28;20181;-75
2023/02/27 07:22:28;;;;;;;1.40;1.30;;;-0.20;1.00;;;;;;5073174;28;20642;-75
2023/02/27 07:25:05;;;;;;;3.63;1.20;;;-0.20;1.00;;;;;;5073290;28;20178;-74
2023/02/27 07:27:48;;;;;;;5.20;1.48;;;-0.20;1.00;;;;;;5059831;28;20300;-74
2023/02/27 07:30:22;;;;;;;3.55;1.55;;;-0.10;1.00;;;;;;5055908;28;20630;-79
2023/02/27 07:32:52;;;;;;;3.65;1.70;;;0.00;1.00;;;;;;5073012;28;20642;-79
2023/02/27 07:42:01;;;;;;;1.70;1.50;;;0.20;1.00;;;;;;5072597;28;20253;-79
2023/02/27 07:54:33;;;;;;;1.60;1.50;;;0.40;1.00;;;;;;5072019;28;20333;-79
2023/02/27 08:00:21;;;;;;;1.95;1.40;;;0.60;1.00;;;;;;5072845;28;20206;-79
2023/02/27 08:02:52;;;;;;;1.50;1.40;;;0.70;1.00;;;;;;5070360;28;20254;-79
2023/02/27 08:08:39;;;;;;;2.17;1.60;;;0.80;1.00;;;;;;5063875;28;20195;-79
2023/02/27 08:11:51;;;;;;;2.97;1.60;;;0.90;1.00;;;;;;5060257;28;20171;-79
2023/02/27 08:14:22;;;;;;;3.10;1.42;;;1.00;1.00;;;;;;5074197;28;20178;-75
2023/02/27 08:17:27;;;;;;;1.60;1.50;;;1.00;1.00;;;;;;5076264;28;20233;-83
2023/02/27 08:19:58;;;;;;;1.70;1.60;;;1.10;1.00;;;;;;5070707;28;20177;-75
2023/02/27 08:22:28;;;;;;;3.63;1.77;;;1.20;1.00;;;;;;5075664;28;20220;-75
2023/02/27 08:25:10;;;;;;;1.85;1.70;;;1.20;1.00;;;;;;5075293;28;20181;-76
2023/02/27 08:27:40;;;;;;;1.70;1.60;;;1.30;1.00;;;;;;5062991;28;20632;-76
2023/02/27 08:36:49;;;;;;;1.73;1.63;;;1.40;1.00;;;;;;5079378;28;20229;-78
2023/02/27 08:46:10;;;;;;;2.10;1.90;;;1.60;1.00;;;;;;5056055;28;20179;-77
2023/02/27 08:49:09;;;;;;;1.83;1.73;;;1.60;1.00;;;;;;5075020;28;20171;-75
2023/02/27 08:51:52;;;;;;;2.25;1.70;;;1.60;1.00;;;;;;5070740;28;20199;-76
2023/02/27 08:54:19;;;;;;;2.85;1.75;;;1.70;1.00;;;;;;5069239;28;20190;-76
2023/02/27 08:57:04;;;;;;;1.88;1.77;;;1.80;1.00;;;;;;5068431;28;20238;-75
2023/02/27 08:59:30;;;;;;;2.13;1.92;;;1.80;1.00;;;;;;5058223;28;20164;-76
2023/02/27 09:01:58;;;;;;;1.67;1.58;;;1.90;1.00;;;;;;5075034;28;20205;-76
2023/02/27 09:04:34;;;;;;;1.90;1.50;;;1.90;1.00;;;;;;5048870;28;20262;-76
2023/02/27 09:07:10;;;;;;;1.70;1.60;;;1.90;1.00;;;;;;5075284;28;20507;-77
2023/02/27 09:10:09;;;;;;;2.75;1.30;;;2.00;1.00;;;;;;5080784;28;20634;-77
2023/02/27 09:12:40;;;;;;;2.30;1.17;;;2.00;1.00;;;;;;5075538;28;20183;-76
2023/02/27 09:15:06;;;;;;;1.30;1.20;;;2.10;1.00;;;;;;5075552;28;20197;-79
2023/02/27 09:20:55;;;;;;;4.70;1.25;;;2.30;1.00;;;;;;5074685;28;23007;-79
2023/02/27 09:26:42;;;;;;;1.52;1.42;;;2.50;1.00;;;;;;5071211;28;20652;-78
2023/02/27 09:29:22;;;;;;;1.80;1.50;;;2.60;1.00;;;;;;5074773;28;20178;-78
2023/02/27 09:31:58;;;;;;;1.55;1.10;;;2.70;1.00;;;;;;5075101;28;20186;-76
2023/02/27 09:34:28;;;;;;;1.40;1.30;;;2.70;1.00;;;;;;5064083;28;20618;-76
2023/02/27 09:36:58;;;;;;;1.00;1.00;;;2.80;1.00;;;;;;5075022;28;20190;-76
2023/02/27 09:39:40;;;;;;;1.02;1.02;;;2.80;1.00;;;;;;5076929;28;20496;-76
2023/02/27 09:42:19;;;;;;;1.00;1.00;;;2.80;1.00;;;;;;5074532;28;20283;-75
2023/02/27 09:45:19;;;;;;;1.17;1.05;;;2.90;1.00;;;;;;5063192;28;20179;-76
2023/02/27 09:47:50;;;;;;;1.00;1.00;;;3.00;1.00;;;;;;5066599;28;20179;-75
2023/02/27 09:50:52;;;;;;;1.17;1.17;;;3.10;1.00;;;;;;5058564;28;20183;-75
2023/02/27 09:53:27;;;;;;;1.67;1.15;;;3.30;1.00;;;;;;5061012;28;20232;-75
2023/02/27 09:56:03;;;;;;;2.15;1.13;;;3.50;1.00;;;;;;5055945;28;20183;-75
2023/02/27 09:58:50;;;;;;;11.30;1.10;;;3.60;1.00;;;;;;5056975;28;20186;-76
2023/02/27 10:01:57;;;;;;;1.85;1.35;;;3.90;1.00;;;;;;5071983;28;20174;-77
2023/02/27 10:05:03;;;;;;;1.00;1.00;;;4.10;1.00;;;;;;5074577;28;20223;-76
2023/02/27 10:07:40;;;;;;;1.30;0.63;;;4.30;1.00;;;;;;5074123;28;20167;-76
2023/02/27 10:10:53;;;;;;;2.17;1.70;;;4.40;1.00;;;;;;5073563;28;20421;-77
2023/02/27 10:13:41;;;;;;;8.23;1.10;;;4.30;1.00;;;;;;5072668;28;20404;-76
2023/02/27 10:16:19;;;;;;;1.90;0.90;;;4.40;1.00;;;;;;5093704;28;20763;-80
2023/02/27 10:19:27;;;;;;;0.83;0.83;;;4.40;1.00;;;;;;5078859;28;20431;-81
2023/02/27 10:32:03;;;;;;;1.67;1.07;;;4.20;1.00;;;;;;5070217;28;20234;-79
2023/02/27 10:35:09;;;;;;;1.58;1.20;;;4.20;1.00;;;;;;5064380;28;20440;-79
2023/02/27 10:41:21;;;;;;;1.80;1.33;;;4.50;1.00;;;;;;5064492;28;20396;-79
2023/02/27 10:47:15;;;;;;;0.83;0.83;;;4.70;1.00;;;;;;5073510;28;20397;-81
2023/02/27 10:49:42;;;;;;;1.10;1.00;;;4.70;1.00;;;;;;5055608;28;20484;-82
2023/02/27 10:52:12;;;;;;;1.07;1.00;;;4.70;1.00;;;;;;5082828;28;20464;-81
2023/02/27 11:01:22;;;;;;;1.10;1.10;;;4.90;1.00;;;;;;5075814;28;20455;-79
2023/02/27 11:10:31;;;;;;;0.80;0.80;;;4.90;1.00;;;;;;5057655;28;20443;-79
2023/02/27 11:13:21;;;;;;;1.00;1.00;;;5.00;1.00;;;;;;5073147;28;20780;-78
2023/02/27 11:26:12;;;;;;;0.90;0.90;;;5.10;1.00;;;;;;5073131;28;20439;-79
2023/02/27 11:29:06;;;;;;;1.10;1.03;;;5.00;1.00;;;;;;5049464;28;20487;-79
2023/02/27 11:32:03;;;;;;;1.13;1.07;;;5.00;1.00;;;;;;5069167;28;20842;-81
2023/02/27 11:34:49;;;;;;;1.00;1.00;;;5.00;1.00;;;;;;5069472;28;20430;-81
2023/02/27 11:37:48;;;;;;;0.50;0.50;;;5.10;1.00;;;;;;5068788;28;20412;-80
2023/02/27 11:47:12;;;;;;;1.33;1.23;;;5.00;1.00;;;;;;5068379;28;20989;-78
2023/02/27 11:49:58;;;;;;;1.00;0.90;;;5.10;1.00;;;;;;5046686;28;20536;-78
2023/02/27 11:52:49;;;;;;;2.93;1.10;;;5.20;1.00;;;;;;5062221;28;20444;-78
2023/02/27 11:58:50;;;;;;;0.67;0.67;;;5.10;1.00;;;;;;5075110;28;20497;-78
2023/02/27 12:04:48;;;;;;;0.80;0.80;;;5.20;1.00;;;;;;5068325;28;20532;-79
2023/02/27 12:08:07;;;;;;;0.97;0.90;;;5.40;1.00;;;;;;5045401;28;21098;-78
2023/02/27 12:11:18;;;;;;;0.90;0.90;;;5.70;1.00;;;;;;5065709;28;20915;-78
2023/02/27 12:14:39;;;;;;;2.40;1.00;;;5.80;1.00;;;;;;5063068;28;20738;-79
2023/02/27 12:20:32;;;;;;;1.43;0.90;;;6.00;1.00;;;;;;5075935;28;20404;-78
2023/02/27 12:26:43;;;;;;;2.00;1.17;;;6.50;1.00;;;;;;5071282;28;20926;-79
2023/02/27 12:29:30;;;;;;;1.00;0.90;;;6.50;1.00;;;;;;5078526;28;20420;-77
2023/02/27 12:32:21;;;;;;;0.70;0.70;;;6.70;1.00;;;;;;5079360;28;20444;-78
2023/02/27 12:38:19;;;;;;;1.07;0.70;;;6.80;1.00;;;;;;5063391;28;20381;-77
2023/02/27 12:41:10;;;;;;;1.43;0.80;;;6.70;1.00;;;;;;5085903;28;20506;-77
2023/02/27 12:47:01;;;;;;;1.13;0.70;;;6.80;1.00;;;;;;5061217;28;20486;-74
2023/02/27 12:49:36;;;;;;;0.60;0.60;;;6.90;1.00;;;;;;5061624;28;20929;-75
2023/02/27 12:52:21;;;;;;;1.23;0.70;;;7.00;1.00;;;;;;5075781;28;20432;-75
2023/02/27 12:54:55;;;;;;;0.80;0.70;;;7.20;1.00;;;;;;5062327;28;20409;-75
2023/02/27 12:57:47;;;;;;;0.93;0.77;;;7.50;1.00;;;;;;5075370;28;20401;-75
2023/02/27 13:01:06;;;;;;;1.17;0.60;;;7.90;1.00;;;;;;5064960;28;20916;-75
2023/02/27 13:04:08;;;;;;;0.60;0.60;;;8.20;1.00;;;;;;4978608;28;20845;-79
2023/02/27 13:13:34;;;;;;;0.60;0.60;;;8.90;1.00;;;;;;4981049;28;20413;-77
2023/02/27 13:16:36;;;;;;;0.63;0.60;;;9.20;1.00;;;;;;4964986;28;20429;-81
2023/02/27 13:19:12;;;;;;;1.00;0.70;;;9.20;1.00;;;;;;4974147;28;20471;-76
2023/02/27 13:22:21;;;;;;;1.40;0.60;;;9.20;1.00;;;;;;4980975;28;20577;-75
2023/02/27 13:24:50;;;;;;;0.60;0.60;;;9.30;1.00;;;;;;4974280;28;20547;-75
2023/02/27 13:34:10;;;;;;;0.60;0.60;;;8.70;1.00;;;;;;4980886;28;20494;-83
2023/02/27 13:40:38;;;;;;;0.73;0.70;;;8.60;1.00;;;;;;5051737;28;20412;-77
2023/02/27 13:49:46;;;;;;;1.17;0.50;;;8.70;1.00;;;;;;4980498;28;20532;-78
2023/02/27 13:55:34;;;;;;;0.70;0.70;;;8.90;1.00;;;;;;4992605;28;20201;-78
2023/02/27 13:58:28;;;;;;;0.93;0.63;;;8.90;1.00;;;;;;4993279;28;20927;-75
2023/02/27 14:01:28;;;;;;;2.30;0.40;;;8.80;1.00;;;;;;4991975;28;20417;-76
2023/02/27 14:03:58;;;;;;;0.90;0.60;;;8.80;1.00;;;;;;4986675;28;20437;-73
2023/02/27 14:13:53;;;;;;;0.60;0.60;;;8.10;1.00;;;;;;4992719;28;20415;-77
2023/02/27 14:19:48;;;;;;;0.60;0.60;;;7.50;1.00;;;;;;5068511;28;20540;-75
2023/02/27 14:23:03;;;;;;;2.23;0.60;;;7.40;1.00;;;;;;5061594;28;20445;-77
2023/02/27 14:25:33;;;;;;;0.60;0.60;;;7.50;1.00;;;;;;5070640;28;20494;-75
2023/02/27 14:28:14;;;;;;;0.60;0.60;;;7.50;1.00;;;;;;5072850;28;20431;-75
2023/02/27 14:31:12;;;;;;;0.60;0.60;;;7.40;1.00;;;;;;5073407;28;20449;-74
2023/02/27 14:33:52;;;;;;;0.57;0.57;;;7.40;1.00;;;;;;5073071;28;20501;-74
2023/02/27 14:36:53;;;;;;;3.37;0.53;;;7.50;1.00;;;;;;5066072;28;20453;-74
2023/02/27 14:39:28;;;;;;;0.83;0.70;;;7.50;1.00;;;;;;5066622;28;20424;-75
2023/02/27 14:42:09;;;;;;;0.87;0.60;;;7.60;1.00;;;;;;5071373;28;20486;-74
2023/02/27 14:44:42;;;;;;;1.07;0.77;;;7.60;1.00;;;;;;5069040;28;20431;-75
2023/02/27 14:47:28;;;;;;;0.50;0.50;;;7.70;1.00;;;;;;5059740;28;20474;-74
2023/02/27 14:49:54;;;;;;;0.50;0.50;;;7.60;1.00;;;;;;5066655;28;20524;-74
2023/02/27 14:52:28;;;;;;;0.53;0.53;;;7.70;1.00;;;;;;5075966;28;20987;-74
2023/02/27 14:55:13;;;;;;;0.60;0.60;;;7.70;1.00;;;;;;5064537;28;20921;-74
2023/02/27 14:57:38;;;;;;;0.80;0.70;;;7.70;1.00;;;;;;5072910;28;20448;-74
2023/02/27 15:00:05;;;;;;;0.70;0.50;;;7.40;1.00;;;;;;5067749;28;20928;-75
2023/02/27 15:06:33;;;;;;;5.30;0.70;;;7.40;1.00;;;;;;5072128;28;20780;-78
2023/02/27 15:12:22;;;;;;;1.13;0.60;;;7.50;1.00;;;;;;5074084;28;20392;-80
2023/02/27 15:24:55;;;;;;;2.07;0.80;;;7.40;1.00;;;;;;5072866;28;20436;-78
2023/02/27 15:27:58;;;;;;;0.50;0.50;;;7.20;1.00;;;;;;5077375;28;20476;-77
2023/02/27 15:30:23;;;;;;;2.00;0.70;;;7.10;1.00;;;;;;5057351;28;20405;-78
2023/02/27 15:39:58;;;;;;;0.50;0.50;;;6.90;1.00;;;;;;5072726;28;20380;-81
2023/02/27 15:42:36;;;;;;;0.60;0.53;;;6.80;1.00;;;;;;5074744;28;20962;-81
2023/02/27 15:48:24;;;;;;;4.07;0.90;;;6.70;1.00;;;;;;5063721;28;20510;-79
2023/02/27 15:50:57;;;;;;;6.13;0.80;;;6.70;1.00;;;;;;5076515;28;20448;-74
2023/02/27 15:53:28;;;;;;;1.70;0.80;;;6.70;1.00;;;;;;5074687;28;20441;-73
2023/02/27 15:56:10;;;;;;;1.63;0.90;;;6.70;1.00;;;;;;5071321;28;20496;-73
2023/02/27 15:58:49;;;;;;;11.80;6.20;;;6.60;1.00;;;;;;5076478;28;20412;-73
2023/02/27 16:01:23;;;;;;;62.07;23.60;;;6.50;1.00;;;;;;5073493;28;20413;-74
2023/02/27 16:03:54;;;;;;;17.37;5.70;;;6.50;1.00;;;;;;5075715;28;20425;-75
2023/02/27 16:06:31;;;;;;;0.87;0.80;;;6.30;1.00;;;;;;5084595;28;20851;-74
2023/02/27 16:09:03;;;;;;;0.90;0.90;;;6.10;1.00;;;;;;5069199;28;20942;-74
2023/02/27 16:11:32;;;;;;;0.80;0.70;;;6.10;1.00;;;;;;5092396;28;20529;-75
2023/02/27 16:13:59;;;;;;;0.70;0.70;;;6.10;1.00;;;;;;5082244;28;20397;-74
2023/02/27 16:16:37;;;;;;;0.70;0.60;;;5.90;1.00;;;;;;5074196;28;20433;-74
2023/02/27 16:22:25;;;;;;;2.30;1.03;;;5.90;1.00;;;;;;5071435;28;20460;-75
2023/02/27 16:25:45;;;;;;;3.80;1.07;;;5.80;1.00;;;;;;5071071;28;20429;-75
2023/02/27 16:31:53;;;;;;;0.70;0.60;;;5.70;1.00;;;;;;5066779;28;20413;-75
2023/02/27 16:34:46;;;;;;;0.80;0.57;;;5.50;1.00;;;;;;5068649;28;20421;-74
2023/02/27 16:38:04;;;;;;;2.30;0.90;;;5.40;1.00;;;;;;5072888;28;20447;-76
2023/02/27 16:40:40;;;;;;;0.60;0.60;;;5.30;1.00;;;;;;5073756;28;20406;-75
2023/02/27 16:43:10;;;;;;;0.73;0.70;;;5.20;1.00;;;;;;5075457;28;20436;-74
2023/02/27 16:46:10;;;;;;;0.70;0.50;;;5.20;1.00;;;;;;5075583;28;20420;-75
2023/02/27 16:48:52;;;;;;;0.70;0.70;;;5.10;1.00;;;;;;5075949;28;20382;-76
2023/02/27 16:51:22;;;;;;;1.70;1.03;;;5.10;1.00;;;;;;5075475;28;20440;-76
2023/02/27 16:53:48;;;;;;;0.83;0.70;;;5.00;1.00;;;;;;5075408;28;20417;-77
2023/02/27 16:59:39;;;;;;;1.23;0.90;;;4.90;1.00;;;;;;5062779;28;20394;-75
2023/02/27 17:02:40;;;;;;;0.60;0.60;;;4.90;1.00;;;;;;5057023;28;20978;-76
2023/02/27 17:08:27;;;;;;;0.60;0.60;;;4.70;1.00;;;;;;5073775;28;20404;-76
2023/02/27 17:14:15;;;;;;;2.23;1.13;;;4.70;1.00;;;;;;5070144;28;20451;-76
2023/02/27 17:20:11;;;;;;;0.80;0.80;;;4.60;1.00;;;;;;5075058;28;20409;-76
2023/02/27 17:33:16;;;;;;;0.90;0.90;;;4.30;1.00;;;;;;5074808;28;20528;-75
2023/02/27 17:36:10;;;;;;;2.50;0.80;;;4.20;1.00;;;;;;5067791;28;20433;-75
2023/02/27 17:38:40;;;;;;;0.70;0.70;;;4.20;1.00;;;;;;5063603;28;20401;-75
2023/02/27 17:41:11;;;;;;;0.70;0.70;;;4.20;1.00;;;;;;5073914;28;20405;-74
2023/02/27 17:43:54;;;;;;;1.87;1.10;;;4.10;1.00;;;;;;5074480;28;20454;-76
2023/02/27 17:47:15;;;;;;;0.97;0.87;;;4.00;1.00;;;;;;5077552;28;20485;-76
2023/02/27 17:49:41;;;;;;;1.73;0.83;;;3.90;1.00;;;;;;5070789;28;20441;-76
2023/02/27 17:52:08;;;;;;;0.70;0.70;;;3.80;1.00;;;;;;5059878;28;20445;-76
2023/02/27 18:01:21;;;;;;;3.47;1.00;;;3.50;1.00;;;;;;5073268;28;20854;-76
2023/02/27 18:04:40;;;;;;;1.70;1.00;;;3.40;1.00;;;;;;5072325;28;20528;-77
2023/02/27 18:07:06;;;;;;;0.90;0.90;;;3.30;1.00;;;;;;5063877;28;20413;-73
2023/02/27 18:09:32;;;;;;;10.95;0.90;;;3.10;1.00;;;;;;5062655;28;20429;-73
2023/02/27 18:11:57;;;;;;;0.80;0.77;;;3.10;1.00;;;;;;5070426;28;20183;-73
2023/02/27 18:14:23;;;;;;;1.20;1.10;;;3.00;1.00;;;;;;5067118;28;20841;-72
2023/02/27 18:16:49;;;;;;;1.25;1.05;;;2.90;1.00;;;;;;5066773;28;20421;-73
2023/02/27 18:19:15;;;;;;;1.30;1.20;;;2.90;1.00;;;;;;5068883;28;20182;-73
2023/02/27 18:28:25;;;;;;;1.52;1.13;;;2.80;1.00;;;;;;5074063;28;20532;-75
2023/02/27 18:31:20;;;;;;;1.33;1.23;;;2.80;1.00;;;;;;5065072;28;20194;-75
2023/02/27 18:33:46;;;;;;;1.10;1.10;;;2.80;1.00;;;;;;5070814;28;20178;-77
2023/02/27 18:42:56;;;;;;;11.75;1.17;;;2.70;1.00;;;;;;5070361;28;20205;-76
2023/02/27 18:48:46;;;;;;;1.10;1.10;;;2.60;1.00;;;;;;5053948;28;20170;-76
2023/02/27 18:54:35;;;;;;;1.63;1.20;;;2.60;1.00;;;;;;5070598;28;20198;-76
2023/02/27 18:57:16;;;;;;;1.42;1.33;;;2.60;1.00;;;;;;5062663;28;20553;-75
2023/02/27 19:03:04;;;;;;;4.68;1.10;;;2.60;1.00;;;;;;5072779;28;20201;-76
2023/02/27 19:05:40;;;;;;;1.53;1.20;;;2.70;1.00;;;;;;5073476;28;20255;-75